Time;durP1;ratioP1;P1;durP2;ratioP2;P2;SDS_P1;SDS_P2;PMS_P1;PMS_P2;Temp;Humidity;BMP_temperature;BMP_pressure;BME280_temperature;BME280_humidity;BME280_pressure;Samples;Min_cycle;Max_cycle;Signal;HPM_P1;HPM_P2
2022/12/29 18:26:30;;;;;;;2.10;1.23;;;8.30;99.90;;;;;;5093690;27;20626;-65
2022/12/29 18:28:57;;;;;;;3.70;1.17;;;8.30;99.90;;;;;;5093895;28;20483;-66
2022/12/29 18:31:26;;;;;;;1.30;1.20;;;8.50;99.90;;;;;;5094163;28;20473;-63
2022/12/29 18:33:54;;;;;;;2.67;1.30;;;8.80;99.90;;;;;;5092584;28;20519;-64
2022/12/29 18:36:21;;;;;;;2.90;1.50;;;9.00;99.90;;;;;;5092759;28;20452;-64
2022/12/29 18:38:49;;;;;;;1.70;0.83;;;9.30;99.90;;;;;;5092563;28;20449;-63
2022/12/29 18:41:18;;;;;;;5.50;1.50;;;9.50;99.90;;;;;;5092655;28;20473;-63
2022/12/29 18:43:47;;;;;;;3.60;1.27;;;9.70;99.90;;;;;;5091927;28;20449;-63
2022/12/29 18:46:14;;;;;;;3.20;1.43;;;9.80;99.90;;;;;;5091678;28;20473;-63
2022/12/29 18:48:41;;;;;;;3.30;1.37;;;10.00;99.90;;;;;;5091948;28;20434;-64
2022/12/29 18:51:15;;;;;;;2.03;1.37;;;10.10;99.90;;;;;;5091960;28;20519;-67
2022/12/29 18:53:42;;;;;;;3.67;1.33;;;10.20;99.90;;;;;;5092593;28;20441;-65
2022/12/29 18:56:09;;;;;;;3.67;1.10;;;10.20;99.90;;;;;;5092053;28;20434;-65
2022/12/29 18:58:35;;;;;;;1.87;1.50;;;10.30;99.90;;;;;;5092919;28;20449;-65
2022/12/29 19:01:04;;;;;;;3.80;1.77;;;10.40;99.90;;;;;;5091721;28;20469;-64
2022/12/29 19:03:31;;;;;;;2.20;1.30;;;10.50;99.90;;;;;;5091494;28;20571;-64
2022/12/29 19:05:59;;;;;;;1.50;1.37;;;10.50;99.90;;;;;;5091186;28;20892;-64
2022/12/29 19:08:25;;;;;;;2.70;1.27;;;10.50;99.90;;;;;;5091297;28;20450;-64
2022/12/29 19:10:52;;;;;;;2.17;1.60;;;10.60;99.90;;;;;;5091849;28;20473;-63
2022/12/29 19:13:27;;;;;;;1.57;1.40;;;10.60;99.90;;;;;;5091817;28;20510;-64
2022/12/29 19:15:54;;;;;;;4.37;1.17;;;10.60;99.90;;;;;;5091267;28;20437;-63
2022/12/29 19:18:24;;;;;;;2.20;1.27;;;10.60;99.90;;;;;;5091647;28;20457;-63
2022/12/29 19:20:53;;;;;;;2.90;2.10;;;10.60;99.90;;;;;;5091335;28;20522;-63
2022/12/29 19:23:21;;;;;;;2.43;1.70;;;10.60;99.90;;;;;;5090727;28;20822;-63
2022/12/29 19:25:48;;;;;;;8.73;2.10;;;10.60;99.90;;;;;;5090879;28;20485;-63
2022/12/29 19:28:19;;;;;;;4.33;1.60;;;10.70;99.90;;;;;;5091353;28;20441;-63
2022/12/29 19:30:47;;;;;;;2.40;1.20;;;10.70;99.90;;;;;;5090829;28;20473;-64
2022/12/29 19:33:14;;;;;;;4.20;1.30;;;10.60;99.90;;;;;;5090922;28;20453;-63
2022/12/29 19:35:43;;;;;;;7.03;1.03;;;10.50;99.90;;;;;;5089412;28;20928;-64
2022/12/29 19:38:12;;;;;;;1.53;1.20;;;10.50;99.90;;;;;;5077161;28;20461;-64
2022/12/29 19:40:43;;;;;;;1.73;1.20;;;10.50;99.90;;;;;;5077589;28;20470;-64
2022/12/29 19:43:10;;;;;;;2.07;1.60;;;10.40;99.90;;;;;;5077789;28;20521;-63
2022/12/29 19:45:39;;;;;;;2.50;0.90;;;10.40;99.90;;;;;;5079120;28;20503;-63
2022/12/29 19:48:06;;;;;;;2.57;1.20;;;10.40;99.90;;;;;;5079373;28;20514;-63
2022/12/29 19:50:33;;;;;;;3.53;1.60;;;10.40;99.90;;;;;;5079259;28;20501;-64
2022/12/29 19:53:01;;;;;;;2.30;1.00;;;10.40;99.90;;;;;;5083294;28;20454;-65
2022/12/29 19:55:28;;;;;;;5.83;1.23;;;10.30;99.90;;;;;;5081903;28;20500;-63
2022/12/29 19:57:54;;;;;;;1.53;1.23;;;10.20;99.90;;;;;;5080186;28;20450;-64
2022/12/29 20:00:21;;;;;;;3.50;1.10;;;10.20;99.90;;;;;;5077751;28;20841;-64
2022/12/29 20:02:48;;;;;;;2.43;1.57;;;10.20;99.90;;;;;;5076720;28;20511;-64
2022/12/29 20:05:14;;;;;;;3.27;1.40;;;10.10;99.90;;;;;;5076240;28;20470;-63
2022/12/29 20:07:41;;;;;;;4.33;2.33;;;10.10;99.90;;;;;;5076363;28;20454;-65
2022/12/29 20:10:10;;;;;;;2.20;1.27;;;10.10;99.90;;;;;;5076362;28;20527;-64
2022/12/29 20:12:37;;;;;;;1.40;1.10;;;10.10;99.90;;;;;;5076213;28;20900;-64
2022/12/29 20:15:05;;;;;;;1.00;1.00;;;10.10;99.90;;;;;;5076528;28;20532;-64
2022/12/29 20:17:32;;;;;;;1.03;1.00;;;10.10;99.90;;;;;;5076648;28;20539;-64
2022/12/29 20:19:59;;;;;;;1.47;1.30;;;10.10;99.90;;;;;;5076081;28;20862;-63
2022/12/29 20:22:25;;;;;;;1.60;1.50;;;10.10;99.90;;;;;;5075795;28;20511;-63
2022/12/29 20:24:52;;;;;;;1.10;1.00;;;10.20;99.90;;;;;;5075911;28;20879;-64
2022/12/29 20:27:20;;;;;;;1.80;0.90;;;10.10;99.90;;;;;;5076095;28;20500;-64
2022/12/29 20:29:47;;;;;;;2.03;0.90;;;10.10;99.90;;;;;;5075832;28;20438;-64
2022/12/29 20:32:16;;;;;;;0.73;0.60;;;10.00;99.90;;;;;;5075762;28;20462;-64
2022/12/29 20:34:44;;;;;;;1.30;0.90;;;9.90;99.90;;;;;;5075903;28;20450;-63
2022/12/29 20:37:11;;;;;;;1.80;1.30;;;9.90;99.90;;;;;;5075744;28;20499;-63
2022/12/29 20:39:39;;;;;;;4.17;0.87;;;9.90;99.90;;;;;;5075515;28;20511;-63
2022/12/29 20:42:06;;;;;;;1.80;1.03;;;9.80;99.90;;;;;;5075885;28;20883;-63
2022/12/29 20:44:34;;;;;;;3.63;1.40;;;9.90;99.90;;;;;;5075975;28;20480;-63
2022/12/29 20:47:02;;;;;;;3.70;1.57;;;9.80;99.90;;;;;;5075710;28;20489;-66
2022/12/29 20:49:29;;;;;;;1.53;1.40;;;9.90;99.90;;;;;;5074793;28;20450;-66
2022/12/29 20:51:56;;;;;;;3.10;1.30;;;9.80;99.90;;;;;;5075679;28;20577;-67
2022/12/29 20:54:23;;;;;;;0.90;0.90;;;9.80;99.90;;;;;;5076223;28;20491;-66
2022/12/29 20:56:51;;;;;;;2.20;1.03;;;9.70;99.90;;;;;;5075963;28;20470;-66
2022/12/29 20:59:17;;;;;;;1.33;1.03;;;9.70;99.90;;;;;;5075791;28;20458;-65
2022/12/29 21:01:46;;;;;;;3.00;1.40;;;9.70;99.90;;;;;;5077343;28;20469;-66
2022/12/29 21:04:12;;;;;;;1.83;1.10;;;9.70;99.90;;;;;;5076459;28;20461;-66
2022/12/29 21:06:39;;;;;;;2.90;1.33;;;9.70;99.90;;;;;;5077359;28;20470;-67
2022/12/29 21:09:06;;;;;;;2.73;1.37;;;9.70;99.90;;;;;;5075320;28;20799;-66
2022/12/29 21:11:33;;;;;;;3.83;1.40;;;9.70;99.90;;;;;;5074742;28;20524;-65
2022/12/29 21:14:00;;;;;;;2.20;0.90;;;9.60;99.90;;;;;;5075507;28;20438;-66
2022/12/29 21:16:27;;;;;;;1.90;1.60;;;9.60;99.90;;;;;;5076878;28;20434;-66
2022/12/29 21:18:55;;;;;;;4.30;0.97;;;9.60;99.90;;;;;;5076706;28;20438;-67
2022/12/29 21:21:24;;;;;;;2.67;0.97;;;9.50;99.90;;;;;;5077415;28;20470;-65
2022/12/29 21:23:51;;;;;;;2.43;0.87;;;9.50;99.90;;;;;;5075268;28;20438;-66
2022/12/29 21:26:19;;;;;;;1.80;0.93;;;9.50;99.90;;;;;;5075742;28;20504;-67
2022/12/29 21:28:46;;;;;;;2.00;1.10;;;9.40;99.90;;;;;;5075025;28;20450;-66
2022/12/29 21:31:24;;;;;;;1.77;1.03;;;9.40;99.90;;;;;;5074837;28;20525;-66
2022/12/29 21:33:51;;;;;;;2.73;1.57;;;9.40;99.90;;;;;;5075064;28;20442;-66
2022/12/29 21:36:19;;;;;;;1.30;1.20;;;9.30;99.90;;;;;;5074428;28;20813;-67
2022/12/29 21:38:46;;;;;;;2.40;1.10;;;9.30;99.90;;;;;;5074651;28;20450;-66
2022/12/29 21:41:15;;;;;;;3.60;0.93;;;9.20;99.90;;;;;;5074530;28;20472;-66
2022/12/29 21:45:23;;;;;;;3.43;1.07;;;9.20;99.90;;;;;;5074821;28;20439;-65
2022/12/29 21:46:29;;;;;;;1.80;1.10;;;9.10;99.90;;;;;;5074119;28;20833;-66
2022/12/29 21:48:55;;;;;;;2.07;1.87;;;9.10;99.90;;;;;;5074173;28;20512;-65
2022/12/29 21:56:53;;;;;;;1.60;0.90;;;9.10;99.90;;;;;;5074065;28;20410;-65
2022/12/29 22:13:10;;;;;;;1.47;1.37;;;9.20;99.90;;;;;;5073873;28;20417;-66
2022/12/29 22:15:38;;;;;;;1.30;1.20;;;9.20;99.90;;;;;;5073843;28;20793;-65
2022/12/29 22:18:05;;;;;;;2.00;1.60;;;9.20;99.90;;;;;;5074067;28;20478;-66
2022/12/29 22:20:35;;;;;;;0.87;0.77;;;9.20;99.90;;;;;;5073715;28;20474;-65
2022/12/29 22:23:03;;;;;;;1.50;1.40;;;9.20;99.90;;;;;;5073674;28;20452;-65
2022/12/29 22:25:30;;;;;;;1.40;1.13;;;9.20;99.90;;;;;;5073275;28;20477;-65
2022/12/29 22:27:58;;;;;;;1.13;1.13;;;9.20;99.90;;;;;;5073379;28;20454;-66
2022/12/29 22:30:24;;;;;;;0.70;0.70;;;9.20;99.90;;;;;;5073680;28;20470;-65
2022/12/29 22:32:51;;;;;;;1.60;1.50;;;9.30;99.90;;;;;;5073938;28;20790;-66
2022/12/29 22:35:18;;;;;;;0.70;0.70;;;9.30;99.90;;;;;;5074165;28;20454;-66
2022/12/29 22:37:45;;;;;;;0.83;0.83;;;9.30;99.90;;;;;;5073739;28;20599;-65
2022/12/29 22:40:13;;;;;;;1.27;1.10;;;9.20;99.90;;;;;;5073450;28;20530;-66
2022/12/29 22:42:40;;;;;;;4.10;1.77;;;9.20;99.90;;;;;;5073124;28;20948;-66
2022/12/29 22:45:08;;;;;;;1.20;1.07;;;9.20;99.90;;;;;;5073463;28;20454;-66
2022/12/29 22:47:34;;;;;;;1.30;1.20;;;9.30;99.90;;;;;;5073798;28;20485;-65
2022/12/29 22:50:01;;;;;;;0.90;0.90;;;9.30;99.90;;;;;;5074110;28;20454;-64
2022/12/29 22:52:28;;;;;;;1.00;1.00;;;9.30;99.90;;;;;;5073377;28;20503;-65
2022/12/29 22:54:55;;;;;;;1.80;1.10;;;9.30;99.90;;;;;;5073494;28;20483;-65
2022/12/29 22:57:23;;;;;;;1.13;1.07;;;9.30;99.90;;;;;;5073274;28;20496;-65
2022/12/29 22:59:49;;;;;;;0.87;0.87;;;9.40;99.90;;;;;;5073149;28;20529;-65
2022/12/29 23:02:16;;;;;;;0.70;0.60;;;9.40;99.90;;;;;;5073332;28;20438;-65
2022/12/29 23:04:43;;;;;;;1.40;0.70;;;9.40;99.90;;;;;;5074051;28;20500;-65
2022/12/29 23:07:10;;;;;;;1.13;0.90;;;9.40;99.90;;;;;;5079966;28;20464;-67
2022/12/29 23:09:37;;;;;;;0.50;0.50;;;9.40;99.90;;;;;;5081532;28;20438;-66
2022/12/29 23:12:04;;;;;;;0.97;0.80;;;9.40;99.90;;;;;;5084208;28;20976;-65
2022/12/29 23:14:33;;;;;;;0.73;0.70;;;9.50;99.90;;;;;;5085795;28;20458;-65
2022/12/29 23:16:59;;;;;;;2.07;1.90;;;9.50;99.90;;;;;;5086122;28;20445;-63
2022/12/29 23:19:27;;;;;;;0.80;0.80;;;9.50;99.90;;;;;;5082988;28;20438;-64
2022/12/29 23:21:53;;;;;;;1.10;0.90;;;9.50;99.90;;;;;;5085565;28;20894;-64
2022/12/29 23:24:21;;;;;;;1.73;0.90;;;9.50;99.90;;;;;;5084811;28;20508;-62
2022/12/29 23:26:48;;;;;;;2.13;1.13;;;9.50;99.90;;;;;;5085619;28;20454;-62
2022/12/29 23:29:17;;;;;;;1.40;1.10;;;9.60;99.90;;;;;;5078766;28;20461;-59
2022/12/29 23:31:46;;;;;;;0.77;0.77;;;9.70;99.90;;;;;;5084799;28;20825;-60
2022/12/29 23:34:15;;;;;;;1.23;1.10;;;9.80;99.90;;;;;;5085652;28;20491;-61
2022/12/29 23:36:43;;;;;;;1.00;0.83;;;9.90;99.90;;;;;;5085301;28;21009;-60
2022/12/29 23:39:16;;;;;;;1.03;0.77;;;10.00;99.90;;;;;;5084787;28;20446;-60
2022/12/29 23:41:43;;;;;;;1.03;1.03;;;10.10;99.90;;;;;;5085167;28;20481;-60
